sensor_id;sensor_type;location;lat;lon;timestamp;P1;durP1;ratioP1;P2;durP2;ratioP2
78672;SDS011;67988;60.086;30.354;2023-03-25T00:02:24;9.27;;;4.82;;
78672;SDS011;67988;60.086;30.354;2023-03-25T00:04:54;8.48;;;4.72;;
78672;SDS011;67988;60.086;30.354;2023-03-25T00:07:21;7.93;;;4.68;;
78672;SDS011;67988;60.086;30.354;2023-03-25T00:09:48;8.35;;;4.18;;
78672;SDS011;67988;60.086;30.354;2023-03-25T00:12:15;11.15;;;4.80;;
78672;SDS011;67988;60.086;30.354;2023-03-25T00:14:43;6.13;;;4.45;;
78672;SDS011;67988;60.086;30.354;2023-03-25T00:17:20;7.95;;;4.03;;
78672;SDS011;67988;60.086;30.354;2023-03-25T00:19:47;8.25;;;5.00;;
78672;SDS011;67988;60.086;30.354;2023-03-25T00:22:16;7.75;;;4.38;;
78672;SDS011;67988;60.086;30.354;2023-03-25T00:24:43;10.40;;;4.72;;
78672;SDS011;67988;60.086;30.354;2023-03-25T00:27:10;5.38;;;3.53;;
78672;SDS011;67988;60.086;30.354;2023-03-25T00:29:38;6.93;;;3.60;;
78672;SDS011;67988;60.086;30.354;2023-03-25T00:32:06;8.55;;;2.95;;
78672;SDS011;67988;60.086;30.354;2023-03-25T00:34:35;3.42;;;2.50;;
78672;SDS011;67988;60.086;30.354;2023-03-25T00:37:06;5.88;;;2.28;;
78672;SDS011;67988;60.086;30.354;2023-03-25T00:39:33;8.07;;;3.47;;
78672;SDS011;67988;60.086;30.354;2023-03-25T00:42:00;4.93;;;3.72;;
78672;SDS011;67988;60.086;30.354;2023-03-25T00:44:27;5.90;;;2.67;;
78672;SDS011;67988;60.086;30.354;2023-03-25T00:46:54;4.80;;;2.88;;
78672;SDS011;67988;60.086;30.354;2023-03-25T00:49:22;4.47;;;2.15;;
78672;SDS011;67988;60.086;30.354;2023-03-25T00:51:51;4.93;;;2.58;;
78672;SDS011;67988;60.086;30.354;2023-03-25T00:54:18;3.10;;;2.08;;
78672;SDS011;67988;60.086;30.354;2023-03-25T00:56:46;3.95;;;2.90;;
78672;SDS011;67988;60.086;30.354;2023-03-25T00:59:13;4.45;;;2.17;;
78672;SDS011;67988;60.086;30.354;2023-03-25T01:01:40;3.05;;;2.13;;
78672;SDS011;67988;60.086;30.354;2023-03-25T01:04:07;3.05;;;1.30;;
78672;SDS011;67988;60.086;30.354;2023-03-25T01:06:37;2.70;;;1.50;;
78672;SDS011;67988;60.086;30.354;2023-03-25T01:09:10;1.85;;;1.52;;
78672;SDS011;67988;60.086;30.354;2023-03-25T01:11:40;4.40;;;2.75;;
78672;SDS011;67988;60.086;30.354;2023-03-25T01:14:10;2.47;;;1.27;;
78672;SDS011;67988;60.086;30.354;2023-03-25T01:16:39;1.73;;;1.20;;
78672;SDS011;67988;60.086;30.354;2023-03-25T01:19:06;3.58;;;2.85;;
78672;SDS011;67988;60.086;30.354;2023-03-25T01:21:33;4.40;;;0.90;;
78672;SDS011;67988;60.086;30.354;2023-03-25T01:24:01;2.35;;;2.15;;
78672;SDS011;67988;60.086;30.354;2023-03-25T01:26:30;1.77;;;1.35;;
78672;SDS011;67988;60.086;30.354;2023-03-25T01:28:57;2.75;;;1.30;;
78672;SDS011;67988;60.086;30.354;2023-03-25T01:31:24;1.83;;;1.15;;
78672;SDS011;67988;60.086;30.354;2023-03-25T01:33:54;1.40;;;1.17;;
78672;SDS011;67988;60.086;30.354;2023-03-25T01:36:22;2.03;;;1.83;;
78672;SDS011;67988;60.086;30.354;2023-03-25T01:38:50;1.75;;;0.98;;
78672;SDS011;67988;60.086;30.354;2023-03-25T01:41:17;1.63;;;1.23;;
78672;SDS011;67988;60.086;30.354;2023-03-25T01:46:28;1.85;;;1.15;;
78672;SDS011;67988;60.086;30.354;2023-03-25T01:48:55;2.67;;;0.93;;
78672;SDS011;67988;60.086;30.354;2023-03-25T01:51:26;4.20;;;1.23;;
78672;SDS011;67988;60.086;30.354;2023-03-25T01:53:56;2.67;;;1.52;;
78672;SDS011;67988;60.086;30.354;2023-03-25T01:56:24;2.75;;;1.65;;
78672;SDS011;67988;60.086;30.354;2023-03-25T01:58:56;2.53;;;2.00;;
78672;SDS011;67988;60.086;30.354;2023-03-25T02:01:28;2.90;;;1.88;;
78672;SDS011;67988;60.086;30.354;2023-03-25T02:03:55;2.95;;;1.90;;
78672;SDS011;67988;60.086;30.354;2023-03-25T02:06:29;4.38;;;1.67;;
78672;SDS011;67988;60.086;30.354;2023-03-25T02:09:01;3.40;;;1.45;;
78672;SDS011;67988;60.086;30.354;2023-03-25T02:11:31;3.45;;;1.88;;
78672;SDS011;67988;60.086;30.354;2023-03-25T02:13:59;2.53;;;2.00;;
78672;SDS011;67988;60.086;30.354;2023-03-25T02:16:33;3.08;;;2.38;;
78672;SDS011;67988;60.086;30.354;2023-03-25T02:19:20;3.28;;;2.28;;
78672;SDS011;67988;60.086;30.354;2023-03-25T02:22:21;4.45;;;2.67;;
78672;SDS011;67988;60.086;30.354;2023-03-25T02:28:13;4.55;;;1.73;;
78672;SDS011;67988;60.086;30.354;2023-03-25T02:34:03;5.82;;;2.47;;
78672;SDS011;67988;60.086;30.354;2023-03-25T02:37:05;5.72;;;2.65;;
78672;SDS011;67988;60.086;30.354;2023-03-25T02:39:53;4.47;;;3.20;;
78672;SDS011;67988;60.086;30.354;2023-03-25T02:42:28;3.83;;;3.08;;
78672;SDS011;67988;60.086;30.354;2023-03-25T02:45:00;4.57;;;3.08;;
78672;SDS011;67988;60.086;30.354;2023-03-25T02:47:33;5.03;;;2.72;;
78672;SDS011;67988;60.086;30.354;2023-03-25T02:50:03;4.28;;;2.92;;
78672;SDS011;67988;60.086;30.354;2023-03-25T02:52:33;4.55;;;2.83;;
78672;SDS011;67988;60.086;30.354;2023-03-25T02:55:07;3.20;;;2.10;;
78672;SDS011;67988;60.086;30.354;2023-03-25T02:57:39;4.50;;;2.75;;
78672;SDS011;67988;60.086;30.354;2023-03-25T03:00:10;4.22;;;2.58;;
78672;SDS011;67988;60.086;30.354;2023-03-25T03:02:41;4.05;;;1.98;;
78672;SDS011;67988;60.086;30.354;2023-03-25T03:05:23;2.50;;;1.48;;
78672;SDS011;67988;60.086;30.354;2023-03-25T03:07:52;2.85;;;2.05;;
78672;SDS011;67988;60.086;30.354;2023-03-25T03:10:31;5.55;;;1.80;;
78672;SDS011;67988;60.086;30.354;2023-03-25T03:15:45;2.78;;;1.88;;
78672;SDS011;67988;60.086;30.354;2023-03-25T03:18:22;2.60;;;1.75;;
78672;SDS011;67988;60.086;30.354;2023-03-25T03:21:02;2.60;;;1.65;;
78672;SDS011;67988;60.086;30.354;2023-03-25T03:23:35;3.58;;;2.75;;
78672;SDS011;67988;60.086;30.354;2023-03-25T03:26:17;3.47;;;2.10;;
78672;SDS011;67988;60.086;30.354;2023-03-25T03:28:55;2.80;;;1.75;;
78672;SDS011;67988;60.086;30.354;2023-03-25T03:31:28;2.80;;;1.60;;
78672;SDS011;67988;60.086;30.354;2023-03-25T03:34:02;3.47;;;1.45;;
78672;SDS011;67988;60.086;30.354;2023-03-25T03:36:37;2.38;;;1.85;;
78672;SDS011;67988;60.086;30.354;2023-03-25T03:39:08;3.03;;;1.15;;
78672;SDS011;67988;60.086;30.354;2023-03-25T03:41:42;2.58;;;1.45;;
78672;SDS011;67988;60.086;30.354;2023-03-25T03:44:15;2.40;;;1.65;;
78672;SDS011;67988;60.086;30.354;2023-03-25T03:46:45;2.15;;;1.45;;
78672;SDS011;67988;60.086;30.354;2023-03-25T03:49:20;2.33;;;1.55;;
78672;SDS011;67988;60.086;30.354;2023-03-25T03:51:54;3.15;;;1.58;;
78672;SDS011;67988;60.086;30.354;2023-03-25T03:54:25;4.03;;;1.13;;
78672;SDS011;67988;60.086;30.354;2023-03-25T03:56:58;2.65;;;1.75;;
78672;SDS011;67988;60.086;30.354;2023-03-25T03:59:30;2.25;;;1.30;;
78672;SDS011;67988;60.086;30.354;2023-03-25T04:02:06;2.15;;;0.90;;
78672;SDS011;67988;60.086;30.354;2023-03-25T04:04:40;2.80;;;1.40;;
78672;SDS011;67988;60.086;30.354;2023-03-25T04:07:10;2.15;;;1.33;;
78672;SDS011;67988;60.086;30.354;2023-03-25T04:09:42;1.52;;;1.23;;
78672;SDS011;67988;60.086;30.354;2023-03-25T04:12:21;2.67;;;1.23;;
78672;SDS011;67988;60.086;30.354;2023-03-25T04:14:51;1.80;;;1.23;;
78672;SDS011;67988;60.086;30.354;2023-03-25T04:17:20;2.75;;;1.23;;
78672;SDS011;67988;60.086;30.354;2023-03-25T04:19:47;1.85;;;1.67;;
78672;SDS011;67988;60.086;30.354;2023-03-25T04:22:18;1.55;;;0.80;;
78672;SDS011;67988;60.086;30.354;2023-03-25T04:24:46;2.60;;;2.28;;
78672;SDS011;67988;60.086;30.354;2023-03-25T04:27:16;4.10;;;1.75;;
78672;SDS011;67988;60.086;30.354;2023-03-25T04:29:45;3.53;;;2.15;;
78672;SDS011;67988;60.086;30.354;2023-03-25T04:32:13;2.22;;;1.40;;
78672;SDS011;67988;60.086;30.354;2023-03-25T04:34:41;2.78;;;1.88;;
78672;SDS011;67988;60.086;30.354;2023-03-25T04:37:08;4.60;;;2.17;;
78672;SDS011;67988;60.086;30.354;2023-03-25T04:39:35;3.38;;;2.08;;
78672;SDS011;67988;60.086;30.354;2023-03-25T04:42:04;3.10;;;1.80;;
78672;SDS011;67988;60.086;30.354;2023-03-25T04:44:31;2.28;;;1.85;;
78672;SDS011;67988;60.086;30.354;2023-03-25T04:47:05;2.70;;;1.45;;
78672;SDS011;67988;60.086;30.354;2023-03-25T04:49:36;3.00;;;1.73;;
78672;SDS011;67988;60.086;30.354;2023-03-25T04:52:03;3.28;;;2.90;;
78672;SDS011;67988;60.086;30.354;2023-03-25T04:54:30;2.47;;;1.83;;
78672;SDS011;67988;60.086;30.354;2023-03-25T04:56:57;2.10;;;1.02;;
78672;SDS011;67988;60.086;30.354;2023-03-25T04:59:24;4.15;;;2.13;;
78672;SDS011;67988;60.086;30.354;2023-03-25T05:01:52;1.95;;;1.40;;
78672;SDS011;67988;60.086;30.354;2023-03-25T05:04:21;2.58;;;1.65;;
78672;SDS011;67988;60.086;30.354;2023-03-25T05:06:49;1.92;;;1.58;;
78672;SDS011;67988;60.086;30.354;2023-03-25T05:09:17;1.92;;;1.13;;
78672;SDS011;67988;60.086;30.354;2023-03-25T05:11:46;2.55;;;1.40;;
78672;SDS011;67988;60.086;30.354;2023-03-25T05:14:14;2.88;;;1.33;;
78672;SDS011;67988;60.086;30.354;2023-03-25T05:16:43;4.65;;;2.33;;
78672;SDS011;67988;60.086;30.354;2023-03-25T05:19:11;2.90;;;1.38;;
78672;SDS011;67988;60.086;30.354;2023-03-25T05:21:40;3.50;;;1.83;;
78672;SDS011;67988;60.086;30.354;2023-03-25T05:24:08;5.65;;;1.60;;
78672;SDS011;67988;60.086;30.354;2023-03-25T05:26:38;3.92;;;1.58;;
78672;SDS011;67988;60.086;30.354;2023-03-25T05:29:06;2.63;;;1.20;;
78672;SDS011;67988;60.086;30.354;2023-03-25T05:31:34;3.67;;;1.75;;
78672;SDS011;67988;60.086;30.354;2023-03-25T05:34:02;4.80;;;1.17;;
78672;SDS011;67988;60.086;30.354;2023-03-25T05:36:33;6.07;;;1.15;;
78672;SDS011;67988;60.086;30.354;2023-03-25T05:39:02;5.45;;;1.83;;
78672;SDS011;67988;60.086;30.354;2023-03-25T05:41:30;6.65;;;1.45;;
78672;SDS011;67988;60.086;30.354;2023-03-25T05:43:58;9.48;;;2.47;;
78672;SDS011;67988;60.086;30.354;2023-03-25T05:48:53;5.63;;;1.77;;
78672;SDS011;67988;60.086;30.354;2023-03-25T05:53:49;4.88;;;1.25;;
78672;SDS011;67988;60.086;30.354;2023-03-25T05:56:18;2.47;;;1.40;;
78672;SDS011;67988;60.086;30.354;2023-03-25T05:58:47;8.10;;;1.55;;
78672;SDS011;67988;60.086;30.354;2023-03-25T06:01:16;5.00;;;1.60;;
78672;SDS011;67988;60.086;30.354;2023-03-25T06:03:44;5.05;;;1.20;;
78672;SDS011;67988;60.086;30.354;2023-03-25T06:06:11;3.97;;;1.38;;
78672;SDS011;67988;60.086;30.354;2023-03-25T06:08:39;6.43;;;1.13;;
78672;SDS011;67988;60.086;30.354;2023-03-25T06:11:06;5.50;;;1.35;;
78672;SDS011;67988;60.086;30.354;2023-03-25T06:13:35;8.15;;;1.90;;
78672;SDS011;67988;60.086;30.354;2023-03-25T06:16:03;4.03;;;1.42;;
78672;SDS011;67988;60.086;30.354;2023-03-25T06:18:34;5.93;;;2.15;;
78672;SDS011;67988;60.086;30.354;2023-03-25T06:21:01;4.25;;;2.00;;
78672;SDS011;67988;60.086;30.354;2023-03-25T06:23:28;3.80;;;0.95;;
78672;SDS011;67988;60.086;30.354;2023-03-25T06:25:55;6.05;;;1.17;;
78672;SDS011;67988;60.086;30.354;2023-03-25T06:28:22;3.30;;;1.42;;
78672;SDS011;67988;60.086;30.354;2023-03-25T06:30:51;3.38;;;1.65;;
78672;SDS011;67988;60.086;30.354;2023-03-25T06:33:18;5.30;;;1.40;;
78672;SDS011;67988;60.086;30.354;2023-03-25T06:35:45;4.25;;;2.00;;
78672;SDS011;67988;60.086;30.354;2023-03-25T06:38:18;4.50;;;1.65;;
78672;SDS011;67988;60.086;30.354;2023-03-25T06:41:15;8.18;;;1.38;;
78672;SDS011;67988;60.086;30.354;2023-03-25T06:43:46;7.93;;;1.77;;
78672;SDS011;67988;60.086;30.354;2023-03-25T06:46:34;4.50;;;1.88;;
78672;SDS011;67988;60.086;30.354;2023-03-25T06:49:10;4.88;;;1.20;;
78672;SDS011;67988;60.086;30.354;2023-03-25T06:51:37;3.33;;;1.23;;
78672;SDS011;67988;60.086;30.354;2023-03-25T06:54:04;5.20;;;1.75;;
78672;SDS011;67988;60.086;30.354;2023-03-25T06:56:31;6.85;;;1.80;;
78672;SDS011;67988;60.086;30.354;2023-03-25T06:58:58;5.72;;;1.85;;
78672;SDS011;67988;60.086;30.354;2023-03-25T07:01:26;5.60;;;1.75;;
78672;SDS011;67988;60.086;30.354;2023-03-25T07:03:54;3.25;;;1.27;;
78672;SDS011;67988;60.086;30.354;2023-03-25T07:06:22;6.07;;;1.90;;
78672;SDS011;67988;60.086;30.354;2023-03-25T07:08:49;4.13;;;1.35;;
78672;SDS011;67988;60.086;30.354;2023-03-25T07:11:18;8.48;;;3.17;;
78672;SDS011;67988;60.086;30.354;2023-03-25T07:13:48;3.78;;;1.40;;
78672;SDS011;67988;60.086;30.354;2023-03-25T07:16:18;8.40;;;1.67;;
78672;SDS011;67988;60.086;30.354;2023-03-25T07:18:45;5.43;;;1.40;;
78672;SDS011;67988;60.086;30.354;2023-03-25T07:21:13;4.25;;;1.15;;
78672;SDS011;67988;60.086;30.354;2023-03-25T07:23:40;9.25;;;1.25;;
78672;SDS011;67988;60.086;30.354;2023-03-25T07:26:07;5.90;;;1.20;;
78672;SDS011;67988;60.086;30.354;2023-03-25T07:28:34;5.07;;;1.05;;
78672;SDS011;67988;60.086;30.354;2023-03-25T07:31:04;5.25;;;1.63;;
78672;SDS011;67988;60.086;30.354;2023-03-25T07:33:32;5.47;;;2.08;;
78672;SDS011;67988;60.086;30.354;2023-03-25T07:35:59;4.40;;;1.20;;
78672;SDS011;67988;60.086;30.354;2023-03-25T07:38:27;5.15;;;1.10;;
78672;SDS011;67988;60.086;30.354;2023-03-25T07:40:54;5.22;;;1.65;;
78672;SDS011;67988;60.086;30.354;2023-03-25T07:43:21;6.22;;;1.85;;
78672;SDS011;67988;60.086;30.354;2023-03-25T07:45:55;3.65;;;1.13;;
78672;SDS011;67988;60.086;30.354;2023-03-25T07:48:23;3.20;;;0.85;;
78672;SDS011;67988;60.086;30.354;2023-03-25T07:50:50;6.43;;;1.75;;
78672;SDS011;67988;60.086;30.354;2023-03-25T07:55:46;2.85;;;1.05;;
78672;SDS011;67988;60.086;30.354;2023-03-25T07:58:15;5.13;;;1.27;;
78672;SDS011;67988;60.086;30.354;2023-03-25T08:00:42;2.25;;;0.98;;
78672;SDS011;67988;60.086;30.354;2023-03-25T08:03:09;6.03;;;2.08;;
78672;SDS011;67988;60.086;30.354;2023-03-25T08:05:37;4.20;;;1.33;;
78672;SDS011;67988;60.086;30.354;2023-03-25T08:08:08;4.18;;;1.20;;
78672;SDS011;67988;60.086;30.354;2023-03-25T08:10:35;5.88;;;1.10;;
78672;SDS011;67988;60.086;30.354;2023-03-25T08:13:03;5.22;;;2.67;;
78672;SDS011;67988;60.086;30.354;2023-03-25T08:15:30;8.25;;;1.58;;
78672;SDS011;67988;60.086;30.354;2023-03-25T08:17:57;4.53;;;1.27;;
78672;SDS011;67988;60.086;30.354;2023-03-25T08:20:25;9.15;;;1.58;;
78672;SDS011;67988;60.086;30.354;2023-03-25T08:22:53;7.75;;;1.55;;
78672;SDS011;67988;60.086;30.354;2023-03-25T08:25:21;2.92;;;1.60;;
78672;SDS011;67988;60.086;30.354;2023-03-25T08:27:48;4.68;;;0.93;;
78672;SDS011;67988;60.086;30.354;2023-03-25T08:30:16;5.32;;;1.10;;
78672;SDS011;67988;60.086;30.354;2023-03-25T08:32:43;4.15;;;0.90;;
78672;SDS011;67988;60.086;30.354;2023-03-25T08:35:11;5.55;;;0.85;;
78672;SDS011;67988;60.086;30.354;2023-03-25T08:37:38;2.78;;;0.50;;
78672;SDS011;67988;60.086;30.354;2023-03-25T08:40:05;6.53;;;1.13;;
78672;SDS011;67988;60.086;30.354;2023-03-25T08:42:34;11.88;;;1.27;;
78672;SDS011;67988;60.086;30.354;2023-03-25T08:45:02;3.50;;;0.93;;
78672;SDS011;67988;60.086;30.354;2023-03-25T08:47:31;4.25;;;1.08;;
78672;SDS011;67988;60.086;30.354;2023-03-25T08:49:58;3.15;;;1.70;;
78672;SDS011;67988;60.086;30.354;2023-03-25T08:52:26;5.13;;;2.35;;
78672;SDS011;67988;60.086;30.354;2023-03-25T08:54:53;3.42;;;1.27;;
78672;SDS011;67988;60.086;30.354;2023-03-25T08:57:20;6.75;;;1.80;;
78672;SDS011;67988;60.086;30.354;2023-03-25T08:59:46;2.92;;;1.02;;
78672;SDS011;67988;60.086;30.354;2023-03-25T09:02:14;1.35;;;0.70;;
78672;SDS011;67988;60.086;30.354;2023-03-25T09:04:42;8.10;;;1.67;;
78672;SDS011;67988;60.086;30.354;2023-03-25T09:07:10;6.07;;;1.10;;
78672;SDS011;67988;60.086;30.354;2023-03-25T09:09:37;2.63;;;1.20;;
78672;SDS011;67988;60.086;30.354;2023-03-25T09:12:04;3.40;;;1.30;;
78672;SDS011;67988;60.086;30.354;2023-03-25T09:14:32;2.40;;;0.68;;
78672;SDS011;67988;60.086;30.354;2023-03-25T09:16:59;2.55;;;0.90;;
78672;SDS011;67988;60.086;30.354;2023-03-25T09:19:26;2.97;;;1.05;;
78672;SDS011;67988;60.086;30.354;2023-03-25T09:21:54;2.97;;;0.82;;
78672;SDS011;67988;60.086;30.354;2023-03-25T09:24:21;3.47;;;0.70;;
78672;SDS011;67988;60.086;30.354;2023-03-25T09:26:49;1.77;;;0.60;;
78672;SDS011;67988;60.086;30.354;2023-03-25T09:29:16;2.78;;;0.80;;
78672;SDS011;67988;60.086;30.354;2023-03-25T09:31:43;5.88;;;2.40;;
78672;SDS011;67988;60.086;30.354;2023-03-25T09:34:10;3.42;;;3.13;;
78672;SDS011;67988;60.086;30.354;2023-03-25T09:36:37;2.08;;;0.70;;
78672;SDS011;67988;60.086;30.354;2023-03-25T09:39:05;3.30;;;0.75;;
78672;SDS011;67988;60.086;30.354;2023-03-25T09:41:39;3.15;;;1.00;;
78672;SDS011;67988;60.086;30.354;2023-03-25T09:44:13;3.92;;;0.60;;
78672;SDS011;67988;60.086;30.354;2023-03-25T09:46:46;1.08;;;0.40;;
78672;SDS011;67988;60.086;30.354;2023-03-25T09:49:15;4.45;;;0.50;;
78672;SDS011;67988;60.086;30.354;2023-03-25T09:51:46;2.67;;;0.63;;
78672;SDS011;67988;60.086;30.354;2023-03-25T09:54:19;4.80;;;1.15;;
78672;SDS011;67988;60.086;30.354;2023-03-25T09:56:50;4.22;;;0.77;;
78672;SDS011;67988;60.086;30.354;2023-03-25T09:59:21;0.98;;;0.80;;
78672;SDS011;67988;60.086;30.354;2023-03-25T10:01:51;0.98;;;0.75;;
78672;SDS011;67988;60.086;30.354;2023-03-25T10:04:30;3.53;;;0.73;;
78672;SDS011;67988;60.086;30.354;2023-03-25T10:07:08;0.98;;;0.73;;
78672;SDS011;67988;60.086;30.354;2023-03-25T10:09:50;3.05;;;0.50;;
78672;SDS011;67988;60.086;30.354;2023-03-25T10:12:27;1.42;;;0.75;;
78672;SDS011;67988;60.086;30.354;2023-03-25T10:15:07;0.73;;;0.45;;
78672;SDS011;67988;60.086;30.354;2023-03-25T10:17:44;1.13;;;0.55;;
78672;SDS011;67988;60.086;30.354;2023-03-25T10:20:34;1.20;;;0.70;;
78672;SDS011;67988;60.086;30.354;2023-03-25T10:23:12;1.08;;;0.70;;
78672;SDS011;67988;60.086;30.354;2023-03-25T10:25:48;0.88;;;0.57;;
78672;SDS011;67988;60.086;30.354;2023-03-25T10:28:23;2.70;;;0.40;;
78672;SDS011;67988;60.086;30.354;2023-03-25T10:30:53;5.20;;;0.50;;
78672;SDS011;67988;60.086;30.354;2023-03-25T10:33:22;0.47;;;0.40;;
78672;SDS011;67988;60.086;30.354;2023-03-25T10:35:59;0.60;;;0.40;;
78672;SDS011;67988;60.086;30.354;2023-03-25T10:38:29;1.40;;;0.40;;
78672;SDS011;67988;60.086;30.354;2023-03-25T10:41:04;1.77;;;0.80;;
78672;SDS011;67988;60.086;30.354;2023-03-25T10:43:49;0.70;;;0.65;;
78672;SDS011;67988;60.086;30.354;2023-03-25T10:46:17;1.42;;;0.52;;
78672;SDS011;67988;60.086;30.354;2023-03-25T10:48:52;1.05;;;0.32;;
78672;SDS011;67988;60.086;30.354;2023-03-25T10:51:19;0.80;;;0.80;;
78672;SDS011;67988;60.086;30.354;2023-03-25T10:53:50;4.13;;;0.40;;
78672;SDS011;67988;60.086;30.354;2023-03-25T10:56:20;1.55;;;1.05;;
78672;SDS011;67988;60.086;30.354;2023-03-25T10:58:50;2.95;;;0.73;;
78672;SDS011;67988;60.086;30.354;2023-03-25T11:01:19;0.75;;;0.47;;
78672;SDS011;67988;60.086;30.354;2023-03-25T11:03:48;1.40;;;0.80;;
78672;SDS011;67988;60.086;30.354;2023-03-25T11:06:19;3.17;;;0.65;;
78672;SDS011;67988;60.086;30.354;2023-03-25T11:08:57;3.97;;;1.33;;
78672;SDS011;67988;60.086;30.354;2023-03-25T11:11:39;2.50;;;0.95;;
78672;SDS011;67988;60.086;30.354;2023-03-25T11:14:07;1.92;;;0.57;;
78672;SDS011;67988;60.086;30.354;2023-03-25T11:16:40;1.48;;;0.60;;
78672;SDS011;67988;60.086;30.354;2023-03-25T11:19:13;4.72;;;0.55;;
78672;SDS011;67988;60.086;30.354;2023-03-25T11:21:45;1.25;;;1.10;;
78672;SDS011;67988;60.086;30.354;2023-03-25T11:24:14;1.35;;;1.05;;
78672;SDS011;67988;60.086;30.354;2023-03-25T11:26:46;1.98;;;0.80;;
78672;SDS011;67988;60.086;30.354;2023-03-25T11:29:17;1.42;;;0.50;;
78672;SDS011;67988;60.086;30.354;2023-03-25T11:31:54;2.15;;;1.05;;
78672;SDS011;67988;60.086;30.354;2023-03-25T11:34:23;2.38;;;1.38;;
78672;SDS011;67988;60.086;30.354;2023-03-25T11:36:51;1.42;;;0.70;;
78672;SDS011;67988;60.086;30.354;2023-03-25T11:39:29;1.63;;;1.00;;
78672;SDS011;67988;60.086;30.354;2023-03-25T11:42:03;2.60;;;1.45;;
78672;SDS011;67988;60.086;30.354;2023-03-25T11:44:39;2.78;;;1.33;;
78672;SDS011;67988;60.086;30.354;2023-03-25T11:47:07;1.60;;;1.00;;
78672;SDS011;67988;60.086;30.354;2023-03-25T11:49:36;2.35;;;0.90;;
78672;SDS011;67988;60.086;30.354;2023-03-25T11:52:06;3.80;;;1.27;;
78672;SDS011;67988;60.086;30.354;2023-03-25T11:54:34;2.85;;;1.38;;
78672;SDS011;67988;60.086;30.354;2023-03-25T11:59:38;2.33;;;1.30;;
78672;SDS011;67988;60.086;30.354;2023-03-25T12:02:16;2.75;;;1.02;;
78672;SDS011;67988;60.086;30.354;2023-03-25T12:04:55;3.00;;;1.00;;
78672;SDS011;67988;60.086;30.354;2023-03-25T12:07:23;2.05;;;1.20;;
78672;SDS011;67988;60.086;30.354;2023-03-25T12:09:54;1.70;;;1.20;;
78672;SDS011;67988;60.086;30.354;2023-03-25T12:12:29;4.70;;;1.52;;
78672;SDS011;67988;60.086;30.354;2023-03-25T12:15:07;3.28;;;0.80;;
78672;SDS011;67988;60.086;30.354;2023-03-25T12:17:47;1.38;;;1.05;;
78672;SDS011;67988;60.086;30.354;2023-03-25T12:20:22;3.42;;;1.90;;
78672;SDS011;67988;60.086;30.354;2023-03-25T12:22:59;2.40;;;1.35;;
78672;SDS011;67988;60.086;30.354;2023-03-25T12:25:31;2.83;;;0.95;;
78672;SDS011;67988;60.086;30.354;2023-03-25T12:28:16;2.30;;;0.98;;
78672;SDS011;67988;60.086;30.354;2023-03-25T12:30:58;3.85;;;1.10;;
78672;SDS011;67988;60.086;30.354;2023-03-25T12:33:32;1.92;;;1.10;;
78672;SDS011;67988;60.086;30.354;2023-03-25T12:36:20;2.72;;;1.13;;
78672;SDS011;67988;60.086;30.354;2023-03-25T12:39:01;1.00;;;0.40;;
78672;SDS011;67988;60.086;30.354;2023-03-25T12:41:38;1.02;;;0.60;;
78672;SDS011;67988;60.086;30.354;2023-03-25T12:44:12;2.03;;;0.93;;
78672;SDS011;67988;60.086;30.354;2023-03-25T12:46:59;2.95;;;1.70;;
78672;SDS011;67988;60.086;30.354;2023-03-25T12:49:42;1.10;;;0.40;;
78672;SDS011;67988;60.086;30.354;2023-03-25T12:52:33;2.70;;;1.13;;
78672;SDS011;67988;60.086;30.354;2023-03-25T12:55:16;10.18;;;2.03;;
78672;SDS011;67988;60.086;30.354;2023-03-25T12:57:58;1.88;;;0.70;;
78672;SDS011;67988;60.086;30.354;2023-03-25T13:00:42;3.08;;;0.75;;
78672;SDS011;67988;60.086;30.354;2023-03-25T13:06:15;1.65;;;1.05;;
78672;SDS011;67988;60.086;30.354;2023-03-25T13:08:52;3.22;;;1.17;;
78672;SDS011;67988;60.086;30.354;2023-03-25T13:11:25;0.98;;;0.30;;
78672;SDS011;67988;60.086;30.354;2023-03-25T13:13:58;1.17;;;1.00;;
78672;SDS011;67988;60.086;30.354;2023-03-25T13:16:31;6.32;;;0.60;;
78672;SDS011;67988;60.086;30.354;2023-03-25T13:19:02;4.53;;;0.52;;
78672;SDS011;67988;60.086;30.354;2023-03-25T13:21:35;2.30;;;0.55;;
78672;SDS011;67988;60.086;30.354;2023-03-25T13:24:06;1.92;;;1.15;;
78672;SDS011;67988;60.086;30.354;2023-03-25T13:26:38;0.90;;;0.47;;
78672;SDS011;67988;60.086;30.354;2023-03-25T13:29:10;1.00;;;0.93;;
78672;SDS011;67988;60.086;30.354;2023-03-25T13:31:45;4.53;;;1.38;;
78672;SDS011;67988;60.086;30.354;2023-03-25T13:34:18;1.85;;;0.65;;
78672;SDS011;67988;60.086;30.354;2023-03-25T13:36:50;3.40;;;1.15;;
78672;SDS011;67988;60.086;30.354;2023-03-25T13:39:26;1.88;;;0.98;;
78672;SDS011;67988;60.086;30.354;2023-03-25T13:42:01;2.97;;;0.80;;
78672;SDS011;67988;60.086;30.354;2023-03-25T13:44:35;1.92;;;0.88;;
78672;SDS011;67988;60.086;30.354;2023-03-25T13:47:07;1.05;;;0.77;;
78672;SDS011;67988;60.086;30.354;2023-03-25T13:49:45;2.05;;;0.88;;
78672;SDS011;67988;60.086;30.354;2023-03-25T13:52:16;2.03;;;0.50;;
78672;SDS011;67988;60.086;30.354;2023-03-25T13:54:44;3.17;;;1.52;;
78672;SDS011;67988;60.086;30.354;2023-03-25T13:57:29;2.75;;;1.00;;
78672;SDS011;67988;60.086;30.354;2023-03-25T14:00:43;2.25;;;0.82;;
78672;SDS011;67988;60.086;30.354;2023-03-25T14:03:32;2.33;;;0.70;;
78672;SDS011;67988;60.086;30.354;2023-03-25T20:57:56;4.85;;;2.63;;
78672;SDS011;67988;60.086;30.354;2023-03-25T21:00:23;5.05;;;3.08;;
78672;SDS011;67988;60.086;30.354;2023-03-25T21:02:50;6.85;;;4.32;;
78672;SDS011;67988;60.086;30.354;2023-03-25T21:05:18;4.10;;;2.80;;
78672;SDS011;67988;60.086;30.354;2023-03-25T21:07:45;6.05;;;3.85;;
78672;SDS011;67988;60.086;30.354;2023-03-25T21:10:12;5.85;;;2.75;;
78672;SDS011;67988;60.086;30.354;2023-03-25T21:12:40;4.47;;;4.05;;
78672;SDS011;67988;60.086;30.354;2023-03-25T21:15:09;4.25;;;2.78;;
78672;SDS011;67988;60.086;30.354;2023-03-25T21:17:37;4.95;;;3.63;;
78672;SDS011;67988;60.086;30.354;2023-03-25T21:20:04;5.20;;;4.18;;
78672;SDS011;67988;60.086;30.354;2023-03-25T21:22:33;5.43;;;3.78;;
78672;SDS011;67988;60.086;30.354;2023-03-25T21:25:00;5.78;;;3.90;;
78672;SDS011;67988;60.086;30.354;2023-03-25T21:27:27;6.13;;;4.32;;
78672;SDS011;67988;60.086;30.354;2023-03-25T21:29:55;4.63;;;3.22;;
78672;SDS011;67988;60.086;30.354;2023-03-25T21:32:23;5.40;;;3.83;;
78672;SDS011;67988;60.086;30.354;2023-03-25T21:34:50;5.85;;;4.47;;
78672;SDS011;67988;60.086;30.354;2023-03-25T21:37:18;5.13;;;4.05;;
78672;SDS011;67988;60.086;30.354;2023-03-25T21:39:45;6.43;;;4.35;;
78672;SDS011;67988;60.086;30.354;2023-03-25T21:42:14;5.45;;;4.10;;
78672;SDS011;67988;60.086;30.354;2023-03-25T21:44:41;7.18;;;4.53;;
78672;SDS011;67988;60.086;30.354;2023-03-25T21:47:08;5.72;;;4.22;;
78672;SDS011;67988;60.086;30.354;2023-03-25T21:49:37;5.85;;;4.40;;
78672;SDS011;67988;60.086;30.354;2023-03-25T21:52:06;7.68;;;4.68;;
78672;SDS011;67988;60.086;30.354;2023-03-25T21:54:37;7.25;;;5.35;;
78672;SDS011;67988;60.086;30.354;2023-03-25T21:57:04;8.68;;;6.10;;
78672;SDS011;67988;60.086;30.354;2023-03-25T21:59:32;8.23;;;5.43;;
78672;SDS011;67988;60.086;30.354;2023-03-25T22:01:59;9.77;;;5.95;;
78672;SDS011;67988;60.086;30.354;2023-03-25T22:04:26;13.15;;;6.75;;
78672;SDS011;67988;60.086;30.354;2023-03-25T22:06:54;9.85;;;5.60;;
78672;SDS011;67988;60.086;30.354;2023-03-25T22:09:22;11.15;;;6.50;;
78672;SDS011;67988;60.086;30.354;2023-03-25T22:11:48;10.02;;;6.32;;
78672;SDS011;67988;60.086;30.354;2023-03-25T22:14:16;8.93;;;5.78;;